PABR METAR and TAF weather

Enter ICAO airport designator
Station Type Date Time Source
PABR METAR 2019/10/15 02:53 UTC NOAA

PABR 150253Z 12008KT 10SM CLR M09/M12 A2984 RMK AO2 SLP106 T10941117 56015 $


Station Type Date Time Source
PABR Decoded METAR 2019/10/15 02:53 UTC NOAA

POST ROGERS MEMORIAL AIRPORT, AK, United States (PABR) 71-17N 156-46W 10M
Oct 14, 2019 - 10:53 PM EDT / 2019.10.15 0253 UTC
Wind: from the ESE (120 degrees) at 9 MPH (8 KT):0
Visibility: 10 mile(s):0
Sky conditions: clear
Temperature: 15.1 F (-9.4 C)
Windchill: 3 F (-16 C):1
Dew Point: 10.9 F (-11.7 C)
Relative Humidity: 83%
Pressure (altimeter): 29.84 in. Hg (1010 hPa)
Pressure tendency: 0.04 inches (1.5 hPa) lower than three hours ago
ob: PABR 150253Z 12008KT 10SM CLR M09/M12 A2984 RMK AO2 SLP106 T10941117 56015
cycle: 3

Station Type Date Time Source
PABR TAF 2019/10/14 18:24 UTC NOAA

TAF PABR 141721Z 1418/1518 18007KT P6SM OVC040
FM142200 13011KT P6SM FEW040
FM151600 12014KT P6SM SCT040

Example: see airport list